createdAt,value
2024-03-05T00:03:46.074Z,6.30
2024-03-05T00:07:54.482Z,6.29
2024-03-05T00:12:03.488Z,6.24
2024-03-05T00:16:11.604Z,6.19
2024-03-05T00:20:21.314Z,6.17
2024-03-05T00:24:29.846Z,6.16
2024-03-05T00:28:39.019Z,6.12
2024-03-05T00:32:46.703Z,6.05
2024-03-05T00:36:55.229Z,6.00
2024-03-05T00:41:03.747Z,6.00
2024-03-05T00:45:13.839Z,6.01
2024-03-05T00:49:24.931Z,6.03
2024-03-05T00:53:33.185Z,6.04
2024-03-05T00:57:41.620Z,6.02
2024-03-05T01:01:49.562Z,5.99
2024-03-05T01:05:57.660Z,5.98
2024-03-05T01:10:06.632Z,6.00
2024-03-05T01:14:15.647Z,6.02
2024-03-05T01:18:25.589Z,6.08
2024-03-05T01:22:33.951Z,6.08
2024-03-05T01:26:45.310Z,6.03
2024-03-05T01:30:52.826Z,5.95
2024-03-05T01:35:03.449Z,5.93
2024-03-05T01:39:11.344Z,5.89
2024-03-05T01:43:22.360Z,5.88
2024-03-05T01:47:30.830Z,5.90
2024-03-05T01:51:38.893Z,5.83
2024-03-05T01:55:48.397Z,5.76
2024-03-05T01:59:57.178Z,5.71
2024-03-05T02:04:05.526Z,5.67
2024-03-05T02:08:18.159Z,5.62
2024-03-05T02:12:27.336Z,5.57
2024-03-05T02:16:35.654Z,5.54
2024-03-05T02:20:43.679Z,5.55
2024-03-05T02:24:51.130Z,5.57
2024-03-05T02:29:00.256Z,5.59
2024-03-05T02:33:09.106Z,5.56
2024-03-05T02:37:17.983Z,5.52
2024-03-05T02:41:25.902Z,5.52
2024-03-05T02:45:35.377Z,5.53
2024-03-05T02:49:43.199Z,5.57
2024-03-05T02:53:51.473Z,5.58
2024-03-05T02:57:59.774Z,5.55
2024-03-05T03:02:09.064Z,5.51
2024-03-05T03:06:21.088Z,5.49
2024-03-05T03:10:29.152Z,5.51
2024-03-05T03:14:37.268Z,5.53
2024-03-05T03:18:47.429Z,5.51
2024-03-05T03:22:55.402Z,5.47
2024-03-05T03:27:04.631Z,5.43
2024-03-05T03:31:14.490Z,5.42
2024-03-05T03:35:22.773Z,5.41
2024-03-05T03:39:30.808Z,5.36
2024-03-05T03:43:39.213Z,5.29
2024-03-05T03:47:48.356Z,5.27
2024-03-05T03:51:56.896Z,5.26
2024-03-05T03:56:07.530Z,5.26
2024-03-05T04:00:20.242Z,5.27
2024-03-05T04:04:28.875Z,5.27
2024-03-05T04:08:36.976Z,5.24
2024-03-05T04:12:44.820Z,5.23
2024-03-05T04:16:53.726Z,5.22
2024-03-05T04:21:01.937Z,5.21
2024-03-05T04:25:10.834Z,5.19
2024-03-05T04:29:21.194Z,5.15
2024-03-05T04:33:29.643Z,5.10
2024-03-05T04:37:38.624Z,5.08
2024-03-05T04:41:49.846Z,5.06
2024-03-05T04:45:58.252Z,5.05
2024-03-05T04:50:07.607Z,5.03
2024-03-05T04:54:16.161Z,4.98
2024-03-05T04:58:26.865Z,4.95
2024-03-05T05:02:34.492Z,4.98
2024-03-05T05:06:42.540Z,5.00
2024-03-05T05:10:50.807Z,4.99
2024-03-05T05:14:58.979Z,4.95
2024-03-05T05:19:07.025Z,4.92
2024-03-05T05:23:17.294Z,4.91
2024-03-05T05:27:25.226Z,4.92
2024-03-05T05:31:33.042Z,4.93
2024-03-05T05:35:41.534Z,4.90
2024-03-05T05:39:49.731Z,4.85
2024-03-05T05:43:57.904Z,4.82
2024-03-05T05:48:06.174Z,4.83
2024-03-05T05:52:14.129Z,4.83
2024-03-05T05:56:22.063Z,4.83
2024-03-05T06:00:38.178Z,4.78
2024-03-05T06:04:47.368Z,4.75
2024-03-05T06:08:55.356Z,4.75
2024-03-05T06:13:03.078Z,4.78
2024-03-05T06:17:11.080Z,4.83
2024-03-05T06:21:19.438Z,4.82
2024-03-05T06:25:28.908Z,4.79
2024-03-05T06:29:40.888Z,4.75
2024-03-05T06:33:49.061Z,4.74
2024-03-05T06:37:59.128Z,4.75
2024-03-05T06:42:09.452Z,4.72
2024-03-05T06:46:19.230Z,4.67
2024-03-05T06:50:35.654Z,4.65
2024-03-05T06:55:00.868Z,4.65
2024-03-05T06:59:11.690Z,4.65
2024-03-05T07:03:20.119Z,4.70
2024-03-05T07:07:29.716Z,4.72
2024-03-05T07:11:37.977Z,4.69
2024-03-05T07:15:45.643Z,4.69
2024-03-05T07:19:53.817Z,4.72
2024-03-05T07:24:01.784Z,4.81
2024-03-05T07:28:11.082Z,4.88
2024-03-05T07:32:18.732Z,4.95
2024-03-05T07:36:26.673Z,5.02
2024-03-05T07:40:33.971Z,5.07
2024-03-05T07:44:41.803Z,5.14
2024-03-05T07:48:49.981Z,5.19
2024-03-05T07:52:58.944Z,5.21
2024-03-05T07:57:07.317Z,5.25
2024-03-05T08:01:14.740Z,5.30
2024-03-05T08:05:24.673Z,5.35
2024-03-05T08:09:32.334Z,5.41
2024-03-05T08:13:40.677Z,5.49
2024-03-05T08:17:49.919Z,5.57
2024-03-05T08:21:57.373Z,5.67
2024-03-05T08:26:06.532Z,5.71
2024-03-05T08:30:17.463Z,5.75
2024-03-05T08:34:25.856Z,5.79
2024-03-05T08:38:34.363Z,5.82
2024-03-05T08:42:43.834Z,5.85
2024-03-05T08:46:51.621Z,5.88
2024-03-05T08:51:00.265Z,5.95
2024-03-05T08:55:09.972Z,6.07
2024-03-05T08:59:17.805Z,6.25
2024-03-05T09:03:25.375Z,6.31
2024-03-05T09:07:33.610Z,6.33
2024-03-05T09:11:41.184Z,6.36
2024-03-05T09:15:48.933Z,6.36
2024-03-05T09:19:57.971Z,6.40
2024-03-05T09:24:07.728Z,6.43
2024-03-05T09:28:18.031Z,6.49
2024-03-05T09:32:25.819Z,6.58
2024-03-05T09:36:36.775Z,6.68
2024-03-05T09:40:46.209Z,6.79
2024-03-05T09:44:56.526Z,6.85
2024-03-05T09:49:11.312Z,6.85
2024-03-05T09:53:23.912Z,6.79
2024-03-05T09:57:34.647Z,6.79
2024-03-05T10:01:45.416Z,6.85
2024-03-05T10:05:53.676Z,6.90
2024-03-05T10:10:13.391Z,6.96
2024-03-05T10:14:22.345Z,7.00
2024-03-05T10:18:35.614Z,7.08
2024-03-05T10:22:43.345Z,7.20
2024-03-05T10:26:50.912Z,7.36
2024-03-05T10:31:06.309Z,7.51
2024-03-05T10:35:14.164Z,7.67
2024-03-05T10:39:23.811Z,7.82
2024-03-05T10:43:36.512Z,7.79
2024-03-05T10:47:44.875Z,7.75
2024-03-05T10:51:54.545Z,7.78
2024-03-05T10:56:02.404Z,7.93
2024-03-05T11:00:16.431Z,8.03
2024-03-05T11:04:27.421Z,8.08
2024-03-05T11:08:37.255Z,8.19
2024-03-05T11:12:46.024Z,8.29
2024-03-05T11:17:05.141Z,8.35
2024-03-05T11:21:14.027Z,8.30
2024-03-05T11:25:35.303Z,8.11
2024-03-05T11:29:43.588Z,7.92
2024-03-05T11:34:13.585Z,7.81
2024-03-05T11:38:22.069Z,7.73
2024-03-05T11:42:29.877Z,7.64
2024-03-05T11:46:45.282Z,7.37
2024-03-05T11:50:57.017Z,7.12
2024-03-05T11:55:07.333Z,6.97
2024-03-05T11:59:15.419Z,6.88
2024-03-05T12:03:25.606Z,6.81
2024-03-05T12:07:34.874Z,6.76
2024-03-05T12:11:42.799Z,6.74
2024-03-05T12:15:50.618Z,6.79
2024-03-05T12:20:10.279Z,6.77
2024-03-05T12:24:19.042Z,6.72
2024-03-05T12:28:28.389Z,6.65
2024-03-05T12:32:38.545Z,6.59
2024-03-05T12:36:47.003Z,6.63
2024-03-05T12:41:04.194Z,6.65
2024-03-05T12:45:16.279Z,6.66
2024-03-05T12:49:25.301Z,6.67
2024-03-05T12:53:33.305Z,6.70
2024-03-05T12:57:44.544Z,6.77
2024-03-05T13:01:57.888Z,6.77
2024-03-05T13:06:06.211Z,6.78
2024-03-05T13:10:14.349Z,6.82
2024-03-05T13:14:24.516Z,6.85
2024-03-05T13:18:32.747Z,6.88
2024-03-05T13:22:40.432Z,6.93
2024-03-05T13:26:49.186Z,6.94
2024-03-05T13:30:56.871Z,6.91
2024-03-05T13:35:08.652Z,6.88
2024-03-05T13:39:23.751Z,6.89
2024-03-05T13:43:31.491Z,6.88
2024-03-05T13:47:41.020Z,6.83
2024-03-05T13:51:49.058Z,6.81
2024-03-05T13:55:57.208Z,6.83
2024-03-05T14:00:10.389Z,6.85
2024-03-05T14:04:22.581Z,6.88
2024-03-05T14:08:32.715Z,6.83
2024-03-05T14:12:42.899Z,6.81
2024-03-05T14:16:51.149Z,6.88
2024-03-05T14:20:59.255Z,6.95
2024-03-05T14:25:09.686Z,6.94
2024-03-05T14:29:17.124Z,6.96
2024-03-05T14:33:24.922Z,6.95
2024-03-05T14:37:33.641Z,6.95
2024-03-05T14:41:41.702Z,6.91
2024-03-05T14:45:50.933Z,6.87
2024-03-05T14:49:58.796Z,6.85
2024-03-05T14:54:08.470Z,6.85
2024-03-05T14:58:18.751Z,6.87
2024-03-05T15:02:28.102Z,6.91
2024-03-05T15:06:36.211Z,7.00
2024-03-05T15:10:45.566Z,7.01
2024-03-05T15:14:53.221Z,6.99
2024-03-05T15:19:01.924Z,6.95
2024-03-05T15:23:11.885Z,6.92
2024-03-05T15:27:20.074Z,6.88
2024-03-05T15:31:27.993Z,6.82
2024-03-05T15:35:35.480Z,6.78
2024-03-05T15:39:43.065Z,6.80
2024-03-05T15:43:50.962Z,6.80
2024-03-05T15:48:12.940Z,6.83
2024-03-05T15:52:21.281Z,6.82
2024-03-05T15:56:46.782Z,6.83
2024-03-05T16:00:55.402Z,6.80
2024-03-05T16:05:17.609Z,6.78
2024-03-05T16:09:33.336Z,6.77
2024-03-05T16:13:41.460Z,6.75
2024-03-05T16:17:51.153Z,6.72
2024-03-05T16:22:01.437Z,6.71
2024-03-05T16:26:11.349Z,6.71
2024-03-05T16:30:20.305Z,6.71
2024-03-05T16:34:28.337Z,6.71
2024-03-05T16:38:37.275Z,6.72
2024-03-05T16:42:45.960Z,6.71
2024-03-05T16:46:55.093Z,6.73
2024-03-05T16:51:03.757Z,6.75
2024-03-05T16:55:14.942Z,6.80
2024-03-05T16:59:24.127Z,6.84
2024-03-05T17:03:35.768Z,6.85
2024-03-05T17:07:44.274Z,6.85
2024-03-05T17:11:52.532Z,6.85
2024-03-05T17:16:01.694Z,6.84
2024-03-05T17:20:14.971Z,6.81
2024-03-05T17:24:23.597Z,6.76
2024-03-05T17:28:31.294Z,6.72
2024-03-05T17:32:39.133Z,6.68
2024-03-05T17:36:46.869Z,6.64
2024-03-05T17:40:55.469Z,6.64
2024-03-05T17:45:06.260Z,6.67
2024-03-05T17:49:14.104Z,6.69
2024-03-05T17:53:22.833Z,6.65
2024-03-05T17:57:33.029Z,6.62
2024-03-05T18:01:44.023Z,6.55
2024-03-05T18:05:54.011Z,6.48
2024-03-05T18:10:02.738Z,6.41
2024-03-05T18:14:11.512Z,6.34
2024-03-05T18:18:20.060Z,6.28
2024-03-05T18:22:30.471Z,6.21
2024-03-05T18:26:40.258Z,6.19
2024-03-05T18:30:49.195Z,6.21
2024-03-05T18:34:56.826Z,6.21
2024-03-05T18:39:09.506Z,6.23
2024-03-05T18:43:20.748Z,6.22
2024-03-05T18:47:28.881Z,6.19
2024-03-05T18:51:37.102Z,6.13
2024-03-05T18:55:46.055Z,6.05
2024-03-05T18:59:57.631Z,6.00
2024-03-05T19:04:06.858Z,5.99
2024-03-05T19:08:15.928Z,6.01
2024-03-05T19:12:23.667Z,6.02
2024-03-05T19:16:31.482Z,6.03
2024-03-05T19:20:39.997Z,6.02
2024-03-05T19:24:49.349Z,6.02
2024-03-05T19:28:58.776Z,5.98
2024-03-05T19:33:17.385Z,5.96
2024-03-05T19:37:24.958Z,5.95
2024-03-05T19:41:34.441Z,5.97
2024-03-05T19:45:42.705Z,6.01
2024-03-05T19:49:50.967Z,6.04
2024-03-05T19:54:02.011Z,6.06
2024-03-05T19:58:11.747Z,6.04
2024-03-05T20:02:19.502Z,6.01
2024-03-05T20:06:28.428Z,5.96
2024-03-05T20:10:38.560Z,5.90
2024-03-05T20:14:46.670Z,5.88
2024-03-05T20:18:55.003Z,5.90
2024-03-05T20:23:04.283Z,5.94
2024-03-05T20:27:12.036Z,5.99
2024-03-05T20:31:21.846Z,6.02
2024-03-05T20:35:29.438Z,5.98
2024-03-05T20:39:37.303Z,5.95
2024-03-05T20:43:47.664Z,5.90
2024-03-05T20:47:55.591Z,5.84
2024-03-05T20:52:03.688Z,5.78
2024-03-05T20:56:12.756Z,5.74
2024-03-05T21:00:21.433Z,5.74
2024-03-05T21:04:32.366Z,5.76
2024-03-05T21:08:39.722Z,5.78
2024-03-05T21:12:48.093Z,5.79
2024-03-05T21:16:56.632Z,5.81
2024-03-05T21:21:04.754Z,5.79
2024-03-05T21:25:12.789Z,5.78
2024-03-05T21:29:21.667Z,5.75
2024-03-05T21:33:29.786Z,5.75
2024-03-05T21:37:39.597Z,5.79
2024-03-05T21:41:48.615Z,5.87
2024-03-05T21:45:56.880Z,5.94
2024-03-05T21:50:04.728Z,5.96
2024-03-05T21:54:12.470Z,5.97
2024-03-05T21:58:20.224Z,5.94
2024-03-05T22:02:29.910Z,5.88
2024-03-05T22:06:37.695Z,5.83
2024-03-05T22:10:45.243Z,5.82
2024-03-05T22:14:52.958Z,5.84
2024-03-05T22:19:01.162Z,5.86
2024-03-05T22:23:13.356Z,5.88
2024-03-05T22:27:21.237Z,5.88
2024-03-05T22:31:31.348Z,5.87
2024-03-05T22:35:40.113Z,5.83
2024-03-05T22:39:48.821Z,5.84
2024-03-05T22:43:56.454Z,5.88
2024-03-05T22:48:07.628Z,5.88
2024-03-05T22:52:15.882Z,5.88
2024-03-05T22:56:24.485Z,5.87
2024-03-05T23:00:37.461Z,5.83
2024-03-05T23:04:45.165Z,5.80
2024-03-05T23:08:52.954Z,5.82
2024-03-05T23:13:01.245Z,5.88
2024-03-05T23:17:12.653Z,5.92
2024-03-05T23:21:20.826Z,5.92
2024-03-05T23:25:28.906Z,5.87
2024-03-05T23:29:37.277Z,5.85
2024-03-05T23:33:45.230Z,5.83
2024-03-05T23:37:52.972Z,5.80
2024-03-05T23:42:01.622Z,5.81
2024-03-05T23:46:10.221Z,5.84
2024-03-05T23:50:18.734Z,5.85
2024-03-05T23:54:27.282Z,5.84
2024-03-05T23:58:35.470Z,5.80
